createdAt,value
2022-11-16T00:12:06.992Z,99.90
2022-11-16T00:14:36.302Z,99.90
2022-11-16T00:17:04.219Z,99.90
2022-11-16T00:19:32.085Z,99.90
2022-11-16T00:29:27.112Z,99.90
2022-11-16T00:41:49.698Z,99.90
2022-11-16T00:56:38.233Z,99.90
2022-11-16T01:14:09.617Z,99.90
2022-11-16T01:21:33.957Z,99.90
2022-11-16T01:28:59.074Z,99.90
2022-11-16T01:33:55.278Z,99.90
2022-11-16T01:41:22.309Z,99.90
2022-11-16T01:43:56.296Z,99.90
2022-11-16T01:46:25.151Z,99.90
2022-11-16T01:49:05.561Z,99.90
2022-11-16T01:51:37.429Z,99.90
2022-11-16T01:54:09.872Z,99.90
2022-11-16T01:56:39.913Z,99.90
2022-11-16T02:06:44.980Z,99.90
2022-11-16T02:09:48.566Z,99.90
2022-11-16T02:12:38.384Z,99.90
2022-11-16T02:15:25.487Z,99.90
2022-11-16T02:18:19.943Z,99.90
2022-11-16T02:21:18.813Z,99.90
2022-11-16T02:24:16.860Z,99.90
2022-11-16T02:27:00.228Z,99.90
2022-11-16T02:29:45.745Z,99.90
2022-11-16T02:32:33.112Z,99.90
2022-11-16T02:35:10.058Z,99.90
2022-11-16T02:37:44.600Z,99.90
2022-11-16T02:40:16.733Z,99.90
2022-11-16T02:42:50.930Z,99.90
2022-11-16T02:45:23.991Z,99.90
2022-11-16T02:47:55.274Z,99.90
2022-11-16T02:50:25.426Z,99.90
2022-11-16T02:57:54.685Z,99.90
2022-11-16T03:00:38.125Z,99.90
2022-11-16T03:03:26.765Z,99.90
2022-11-16T03:05:59.717Z,99.90
2022-11-16T03:08:30.752Z,99.90
2022-11-16T03:11:19.398Z,99.90
2022-11-16T03:13:48.856Z,99.90
2022-11-16T03:16:23.403Z,99.90
2022-11-16T03:18:53.179Z,99.90
2022-11-16T03:21:39.769Z,99.90
2022-11-16T03:24:08.921Z,99.90
2022-11-16T03:26:56.075Z,99.90
2022-11-16T03:29:41.357Z,99.90
2022-11-16T03:32:39.722Z,99.90
2022-11-16T03:35:18.039Z,99.90
2022-11-16T03:37:48.504Z,99.90
2022-11-16T03:40:18.690Z,99.90
2022-11-16T03:42:49.706Z,99.90
2022-11-16T03:45:18.677Z,99.90
2022-11-16T04:00:13.203Z,99.90
2022-11-16T04:10:50.340Z,99.90
2022-11-16T04:13:49.821Z,99.90
2022-11-16T04:22:10.289Z,99.90
2022-11-16T04:24:40.756Z,99.90
2022-11-16T04:27:26.872Z,99.90
2022-11-16T04:29:57.044Z,99.90
2022-11-16T04:40:24.169Z,99.90
2022-11-16T04:42:56.207Z,99.90
2022-11-16T04:45:40.055Z,99.90
2022-11-16T04:55:33.124Z,99.90
2022-11-16T04:58:03.300Z,99.90
2022-11-16T05:00:33.859Z,99.90
2022-11-16T05:03:06.355Z,99.90
2022-11-16T05:05:38.975Z,99.90
2022-11-16T05:08:09.386Z,99.90
2022-11-16T05:10:38.985Z,99.90
2022-11-16T05:13:09.863Z,99.90
2022-11-16T05:15:38.829Z,99.90
2022-11-16T05:18:07.984Z,99.90
2022-11-16T05:20:52.801Z,99.90
2022-11-16T05:23:36.761Z,99.90
2022-11-16T05:26:05.103Z,99.90
2022-11-16T05:28:33.559Z,99.90
2022-11-16T05:33:34.406Z,99.90
2022-11-16T05:36:02.234Z,99.90
2022-11-16T05:38:30.878Z,99.90
2022-11-16T05:41:00.858Z,99.90
2022-11-16T05:43:29.951Z,99.90
2022-11-16T05:46:00.865Z,99.90
2022-11-16T05:48:31.330Z,99.90
2022-11-16T05:51:02.903Z,99.90
2022-11-16T05:53:32.071Z,99.90
2022-11-16T05:58:31.566Z,99.90
2022-11-16T06:03:32.042Z,99.90
2022-11-16T06:08:31.784Z,99.90
2022-11-16T06:11:06.178Z,99.90
2022-11-16T06:16:03.165Z,99.90
2022-11-16T06:18:32.163Z,99.90
2022-11-16T06:21:01.528Z,99.90
2022-11-16T06:23:30.024Z,99.90
2022-11-16T06:25:59.654Z,99.90
2022-11-16T06:28:27.876Z,99.90
2022-11-16T06:30:55.606Z,99.90
2022-11-16T06:33:23.547Z,99.90
2022-11-16T06:35:51.216Z,99.90
2022-11-16T06:38:19.171Z,99.90
2022-11-16T06:40:51.859Z,99.90
2022-11-16T06:43:20.055Z,99.90
2022-11-16T06:45:50.651Z,99.90
2022-11-16T06:48:19.062Z,99.90
2022-11-16T06:50:49.769Z,99.90
2022-11-16T06:56:03.719Z,99.90
2022-11-16T06:58:32.454Z,99.90
2022-11-16T07:01:09.510Z,99.90
2022-11-16T07:03:37.329Z,99.90
2022-11-16T07:06:13.540Z,99.90
2022-11-16T07:08:42.885Z,99.90
2022-11-16T07:11:11.344Z,99.90
2022-11-16T07:13:39.802Z,99.90
2022-11-16T07:16:09.710Z,99.90
2022-11-16T07:18:39.022Z,99.90
2022-11-16T07:21:08.198Z,99.90
2022-11-16T07:26:05.606Z,99.90
2022-11-16T07:31:04.361Z,99.90
2022-11-16T07:33:32.283Z,99.90
2022-11-16T07:36:04.514Z,99.90
2022-11-16T07:38:34.383Z,99.90
2022-11-16T07:41:06.027Z,99.90
2022-11-16T07:43:35.947Z,99.90
2022-11-16T07:46:44.711Z,99.90
2022-11-16T07:49:08.339Z,99.90
2022-11-16T07:51:41.676Z,99.90
2022-11-16T07:54:15.078Z,99.90
2022-11-16T07:56:45.015Z,99.90
2022-11-16T07:59:21.253Z,99.90
2022-11-16T08:01:49.179Z,99.90
2022-11-16T08:04:17.710Z,99.90
2022-11-16T08:06:47.170Z,99.90
2022-11-16T08:09:14.683Z,99.90
2022-11-16T08:11:42.259Z,99.90
2022-11-16T08:14:11.465Z,99.90
2022-11-16T08:16:39.199Z,99.90
2022-11-16T08:19:06.767Z,99.90
2022-11-16T08:31:31.555Z,99.90
2022-11-16T08:34:00.997Z,99.90
2022-11-16T08:43:57.017Z,99.90
2022-11-16T08:48:57.310Z,99.90
2022-11-16T08:51:27.670Z,99.90
2022-11-16T08:53:58.110Z,99.90
2022-11-16T09:01:32.936Z,98.20
2022-11-16T09:04:02.511Z,92.50
2022-11-16T09:06:32.348Z,74.10
2022-11-16T09:09:02.534Z,65.10
2022-11-16T09:11:31.742Z,58.00
2022-11-16T09:14:02.094Z,56.80
2022-11-16T09:16:33.221Z,44.50
2022-11-16T09:19:04.500Z,39.50
2022-11-16T09:24:05.913Z,36.90
2022-11-16T09:31:34.886Z,25.10
2022-11-16T09:42:02.612Z,21.50
2022-11-16T09:44:57.632Z,20.60
2022-11-16T09:47:42.347Z,19.60
2022-11-16T09:50:24.439Z,21.20
2022-11-16T09:52:55.415Z,21.30
2022-11-16T09:55:41.685Z,21.10
2022-11-16T09:58:16.403Z,20.40
2022-11-16T10:00:50.053Z,20.60
2022-11-16T10:03:17.544Z,26.40
2022-11-16T10:06:04.054Z,24.60
2022-11-16T10:08:46.399Z,23.90
2022-11-16T10:11:31.609Z,23.20
2022-11-16T10:14:13.673Z,21.90
2022-11-16T10:17:03.613Z,22.70
2022-11-16T10:19:56.687Z,20.30
2022-11-16T10:22:42.064Z,12.40
2022-11-16T10:25:16.861Z,10.70
2022-11-16T10:28:07.622Z,15.10
2022-11-16T10:30:45.387Z,13.50
2022-11-16T10:33:18.916Z,3.90
2022-11-16T10:35:54.345Z,2.60
2022-11-16T10:38:31.268Z,5.80
2022-11-16T10:41:14.872Z,2.10
2022-11-16T10:43:45.435Z,1.00
2022-11-16T10:46:30.688Z,1.00
2022-11-16T10:49:21.008Z,1.00
2022-11-16T10:54:18.237Z,1.50
2022-11-16T10:56:52.864Z,1.00
2022-11-16T10:59:20.969Z,5.60
2022-11-16T11:01:51.328Z,1.00
2022-11-16T11:04:26.377Z,1.00
2022-11-16T11:06:58.395Z,1.70
2022-11-16T11:09:36.057Z,1.30
2022-11-16T11:12:32.139Z,1.00
2022-11-16T11:15:06.683Z,2.80
2022-11-16T11:17:36.391Z,3.60
2022-11-16T11:20:18.589Z,2.60
2022-11-16T11:22:56.949Z,2.40
2022-11-16T11:25:29.764Z,2.90
2022-11-16T11:28:23.937Z,2.50
2022-11-16T11:31:12.649Z,3.10
2022-11-16T11:33:48.467Z,2.10
2022-11-16T11:36:34.610Z,1.80
2022-11-16T11:39:08.587Z,2.70
2022-11-16T11:41:40.643Z,1.00
2022-11-16T11:44:26.112Z,1.00
2022-11-16T11:47:55.771Z,9.10
2022-11-16T11:50:11.447Z,1.00
2022-11-16T11:52:47.436Z,1.00
2022-11-16T11:55:18.105Z,1.00
2022-11-16T11:57:49.382Z,1.00
2022-11-16T12:00:18.342Z,1.00
2022-11-16T12:03:15.725Z,1.00
2022-11-16T12:05:57.740Z,1.00
2022-11-16T12:08:54.145Z,1.00
2022-11-16T12:11:37.394Z,1.00
2022-11-16T12:14:20.185Z,1.00
2022-11-16T12:17:09.004Z,1.00
2022-11-16T12:19:57.549Z,1.00
2022-11-16T12:22:48.809Z,1.00
2022-11-16T12:25:33.751Z,1.00
2022-11-16T12:28:27.023Z,1.00
2022-11-16T12:31:10.762Z,1.00
2022-11-16T12:33:56.329Z,1.00
2022-11-16T12:36:49.931Z,1.00
2022-11-16T12:39:34.023Z,1.00
2022-11-16T12:42:29.870Z,1.00
2022-11-16T12:45:20.948Z,1.00
2022-11-16T12:48:10.976Z,1.00
2022-11-16T12:51:00.610Z,1.00
2022-11-16T12:53:52.482Z,1.00
2022-11-16T12:56:35.144Z,1.00
2022-11-16T12:59:28.291Z,1.00
2022-11-16T13:02:23.866Z,1.00
2022-11-16T13:04:59.285Z,1.00
2022-11-16T13:07:37.777Z,1.00
2022-11-16T13:10:21.226Z,1.00
2022-11-16T13:13:21.857Z,1.00
2022-11-16T13:15:49.353Z,1.00
2022-11-16T13:18:23.799Z,1.00
2022-11-16T13:21:01.034Z,1.00
2022-11-16T13:23:56.308Z,1.00
2022-11-16T13:26:36.535Z,1.00
2022-11-16T13:29:36.907Z,1.00
2022-11-16T13:32:31.843Z,1.00
2022-11-16T13:35:04.420Z,1.00
2022-11-16T13:37:45.074Z,1.00
2022-11-16T13:40:24.678Z,1.00
2022-11-16T13:43:16.967Z,1.00
2022-11-16T13:45:57.515Z,1.00
2022-11-16T13:48:36.150Z,1.00
2022-11-16T13:51:08.692Z,1.00
2022-11-16T13:54:38.009Z,1.00
2022-11-16T13:56:49.119Z,1.00
2022-11-16T13:59:23.332Z,1.00
2022-11-16T14:02:02.006Z,1.00
2022-11-16T14:04:54.296Z,1.00
2022-11-16T14:07:43.124Z,1.00
2022-11-16T14:10:32.737Z,1.00
2022-11-16T14:13:04.495Z,1.00
2022-11-16T14:15:38.159Z,1.00
2022-11-16T14:18:33.100Z,1.00
2022-11-16T14:21:36.908Z,1.00
2022-11-16T14:24:24.090Z,1.00
2022-11-16T14:27:16.777Z,1.00
2022-11-16T14:30:26.239Z,1.00
2022-11-16T14:32:59.339Z,1.00
2022-11-16T14:35:40.020Z,1.00
2022-11-16T14:38:27.715Z,1.00
2022-11-16T14:41:00.117Z,7.50
2022-11-16T14:43:40.602Z,1.00
2022-11-16T14:46:37.883Z,1.00
2022-11-16T14:51:38.085Z,1.00
2022-11-16T14:54:20.911Z,11.90
2022-11-16T14:57:05.190Z,1.00
2022-11-16T15:02:14.920Z,2.40
2022-11-16T15:04:42.743Z,16.30
2022-11-16T15:07:13.169Z,5.10
2022-11-16T15:09:46.920Z,6.00
2022-11-16T15:12:33.580Z,7.90
2022-11-16T15:15:07.813Z,11.40
2022-11-16T15:17:36.321Z,16.10
2022-11-16T15:20:17.024Z,18.40
2022-11-16T15:22:47.479Z,19.70
2022-11-16T15:25:33.168Z,19.50
2022-11-16T15:28:03.682Z,22.10
2022-11-16T15:30:37.710Z,23.60
2022-11-16T15:33:11.471Z,25.10
2022-11-16T15:38:15.241Z,28.70
2022-11-16T15:40:54.347Z,32.00
2022-11-16T15:43:26.452Z,32.30
2022-11-16T15:45:55.213Z,33.70
2022-11-16T15:48:24.909Z,30.80
2022-11-16T15:51:15.532Z,31.90
2022-11-16T15:53:45.817Z,33.60
2022-11-16T15:56:32.846Z,32.40
2022-11-16T15:59:10.081Z,34.10
2022-11-16T16:01:47.594Z,36.90
2022-11-16T16:04:17.610Z,40.20
2022-11-16T16:06:55.993Z,45.90
2022-11-16T16:09:31.065Z,46.20
2022-11-16T16:12:18.096Z,45.90
2022-11-16T16:14:48.707Z,45.40
2022-11-16T16:17:27.211Z,45.20
2022-11-16T16:20:01.618Z,47.50
2022-11-16T16:22:34.714Z,46.80
2022-11-16T16:25:04.554Z,33.30
2022-11-16T16:27:38.615Z,25.40
2022-11-16T16:30:07.528Z,25.20
2022-11-16T16:32:40.312Z,26.60
2022-11-16T16:35:16.389Z,31.50
2022-11-16T16:45:20.004Z,29.70
2022-11-16T16:52:43.875Z,39.10
2022-11-16T16:55:13.484Z,57.70
2022-11-16T17:00:14.402Z,35.50
2022-11-16T17:05:11.479Z,49.60
2022-11-16T17:07:40.882Z,49.20
2022-11-16T17:10:09.727Z,46.50
2022-11-16T17:12:38.194Z,29.10
2022-11-16T17:15:06.333Z,28.10
2022-11-16T17:20:06.580Z,35.60
2022-11-16T17:27:32.720Z,39.20
2022-11-16T17:57:13.067Z,54.10
2022-11-16T18:02:11.725Z,47.30
2022-11-16T18:20:05.160Z,71.80
2022-11-16T18:27:33.408Z,93.10
2022-11-16T18:35:02.106Z,99.90
2022-11-16T18:44:58.101Z,99.90
2022-11-16T18:54:52.156Z,99.90
2022-11-16T19:07:15.210Z,99.90
2022-11-16T19:12:12.186Z,99.90
2022-11-16T19:24:32.781Z,99.90
2022-11-16T19:29:28.508Z,99.90
2022-11-16T19:39:27.947Z,99.90
2022-11-16T19:51:50.014Z,99.90
2022-11-16T20:04:17.102Z,99.90
2022-11-16T20:11:41.949Z,99.90
2022-11-16T20:14:14.250Z,99.90
2022-11-16T20:16:43.823Z,99.90
2022-11-16T20:19:16.004Z,99.90
2022-11-16T20:24:14.075Z,99.90
2022-11-16T20:26:45.257Z,99.90
2022-11-16T20:29:14.608Z,99.90
2022-11-16T20:31:44.635Z,99.90
2022-11-16T20:34:14.375Z,99.90
2022-11-16T20:36:44.699Z,99.90
2022-11-16T20:39:14.555Z,99.90
2022-11-16T20:44:16.704Z,99.90
2022-11-16T20:46:46.096Z,99.90
2022-11-16T21:04:06.590Z,56.90
2022-11-16T21:11:52.325Z,56.60
2022-11-16T21:14:23.484Z,68.90
2022-11-16T21:21:46.953Z,99.90
2022-11-16T21:26:42.293Z,99.90
2022-11-16T21:36:36.490Z,94.10
2022-11-16T21:51:27.363Z,94.70
2022-11-16T21:56:25.102Z,99.90
2022-11-16T21:58:53.914Z,99.90
2022-11-16T22:01:22.542Z,99.90
2022-11-16T22:09:24.667Z,99.90
2022-11-16T22:51:22.180Z,97.90
2022-11-16T22:54:05.536Z,99.90
2022-11-16T22:56:33.911Z,99.90
2022-11-16T23:11:39.593Z,99.90
2022-11-16T23:14:25.683Z,99.90
2022-11-16T23:22:30.425Z,99.90
2022-11-16T23:27:49.733Z,99.90
2022-11-16T23:37:54.673Z,99.20
2022-11-16T23:40:25.484Z,93.40
2022-11-16T23:43:11.414Z,94.20
2022-11-16T23:45:40.427Z,94.30
2022-11-16T23:48:09.582Z,93.90
2022-11-16T23:53:05.773Z,91.30
2022-11-16T23:55:38.409Z,90.70
2022-11-16T23:58:07.186Z,89.70
